createdAt,value
2018-11-25T00:00:38.331Z,7.10
2018-11-25T00:01:38.292Z,7.30
2018-11-25T00:02:38.251Z,7.10
2018-11-25T00:03:38.211Z,7.90
2018-11-25T00:04:38.166Z,7.10
2018-11-25T00:05:38.128Z,7.30
2018-11-25T00:06:38.082Z,7.30
2018-11-25T00:07:38.043Z,7.10
2018-11-25T00:08:37.996Z,7.30
2018-11-25T00:09:37.956Z,7.00
2018-11-25T00:10:37.919Z,7.60
2018-11-25T00:11:37.871Z,7.40
2018-11-25T00:12:37.835Z,7.50
2018-11-25T00:13:37.794Z,8.40
2018-11-25T00:14:37.748Z,8.50
2018-11-25T00:15:37.707Z,8.50
2018-11-25T00:16:37.669Z,7.20
2018-11-25T00:17:37.629Z,7.80
2018-11-25T00:18:37.582Z,7.50
2018-11-25T00:19:37.542Z,7.70
2018-11-25T00:20:37.503Z,9.90
2018-11-25T00:21:37.456Z,8.30
2018-11-25T00:22:37.421Z,7.80
2018-11-25T00:23:37.376Z,7.70
2018-11-25T00:24:37.336Z,7.80
2018-11-25T00:25:37.298Z,7.70
2018-11-25T00:26:37.248Z,8.50
2018-11-25T00:27:37.208Z,8.40
2018-11-25T00:28:37.167Z,8.30
2018-11-25T00:29:37.124Z,8.80
2018-11-25T00:30:37.090Z,9.00
2018-11-25T00:31:37.043Z,8.10
2018-11-25T00:32:37.000Z,8.90
2018-11-25T00:33:36.956Z,8.60
2018-11-25T00:34:36.922Z,7.80
2018-11-25T00:35:36.877Z,8.10
2018-11-25T00:36:36.837Z,9.00
2018-11-25T00:37:36.799Z,8.70
2018-11-25T00:38:36.751Z,8.20
2018-11-25T00:39:36.708Z,8.10
2018-11-25T00:40:36.669Z,8.50
2018-11-25T00:41:36.624Z,8.30
2018-11-25T00:42:36.597Z,9.20
2018-11-25T00:43:36.544Z,9.40
2018-11-25T00:44:36.503Z,9.50
2018-11-25T00:45:36.464Z,10.20
2018-11-25T00:46:36.417Z,8.70
2018-11-25T00:47:36.381Z,8.20
2018-11-25T00:48:36.337Z,9.00
2018-11-25T00:49:36.297Z,8.80
2018-11-25T00:50:36.250Z,9.10
2018-11-25T00:51:36.211Z,10.10
2018-11-25T00:52:36.169Z,10.30
2018-11-25T00:53:36.125Z,10.60
2018-11-25T00:54:36.101Z,9.80
2018-11-25T00:55:36.049Z,10.30
2018-11-25T00:56:36.005Z,10.00
2018-11-25T00:57:35.965Z,11.90
2018-11-25T00:58:35.919Z,9.60
2018-11-25T00:59:35.878Z,10.20
2018-11-25T01:00:35.836Z,12.10
2018-11-25T01:01:35.794Z,9.60
2018-11-25T01:02:35.756Z,10.90
2018-11-25T01:03:35.731Z,10.50
2018-11-25T01:04:35.669Z,9.90
2018-11-25T01:05:35.625Z,9.40
2018-11-25T01:06:35.590Z,9.40
2018-11-25T01:07:35.546Z,10.20
2018-11-25T01:08:35.507Z,11.00
2018-11-25T01:09:35.464Z,10.40
2018-11-25T01:10:35.421Z,10.40
2018-11-25T01:11:35.407Z,11.20
2018-11-25T01:12:35.336Z,10.80
2018-11-25T01:13:35.291Z,11.90
2018-11-25T01:14:35.255Z,11.70
2018-11-25T01:15:35.211Z,11.70
2018-11-25T01:16:35.168Z,10.80
2018-11-25T01:17:35.131Z,11.50
2018-11-25T01:18:35.082Z,10.50
2018-11-25T01:19:35.041Z,10.30
2018-11-25T01:20:35.007Z,10.20
2018-11-25T01:21:34.963Z,10.30
2018-11-25T01:22:34.917Z,10.90
2018-11-25T01:23:34.881Z,10.70
2018-11-25T01:24:34.834Z,11.70
2018-11-25T01:25:34.790Z,10.70
2018-11-25T01:26:34.756Z,11.40
2018-11-25T01:27:34.711Z,10.90
2018-11-25T01:28:34.668Z,11.40
2018-11-25T01:29:34.631Z,10.50
2018-11-25T01:30:34.581Z,11.00
2018-11-25T01:31:34.543Z,10.30
2018-11-25T01:32:34.499Z,10.70
2018-11-25T01:33:34.456Z,10.30
2018-11-25T01:34:34.424Z,10.10
2018-11-25T01:35:34.377Z,11.20
2018-11-25T01:36:34.332Z,9.70
2018-11-25T01:37:34.296Z,10.00
2018-11-25T01:38:34.253Z,9.50
2018-11-25T01:39:34.208Z,8.90
2018-11-25T01:40:34.167Z,9.60
2018-11-25T01:41:34.127Z,10.60
2018-11-25T01:42:34.081Z,9.10
2018-11-25T01:43:34.040Z,9.70
2018-11-25T01:44:34.004Z,8.80
2018-11-25T01:45:33.954Z,8.80
2018-11-25T01:46:33.919Z,8.50
2018-11-25T01:47:33.875Z,8.20
2018-11-25T01:48:33.833Z,7.80
2018-11-25T01:49:33.793Z,8.80
2018-11-25T01:50:33.748Z,8.40
2018-11-25T01:51:33.704Z,8.20
2018-11-25T01:52:33.676Z,9.00
2018-11-25T01:53:33.637Z,8.90
2018-11-25T01:54:33.581Z,8.60
2018-11-25T01:55:33.538Z,8.80
2018-11-25T01:56:33.497Z,9.00
2018-11-25T01:57:33.454Z,9.00
2018-11-25T01:58:33.427Z,8.90
2018-11-25T01:59:33.382Z,8.40
2018-11-25T02:00:33.337Z,8.20
2018-11-25T02:01:33.294Z,8.20
2018-11-25T02:02:33.248Z,7.90
2018-11-25T02:03:33.206Z,7.90
2018-11-25T02:04:33.166Z,7.40
2018-11-25T02:05:33.119Z,8.00
2018-11-25T02:06:33.086Z,7.50
2018-11-25T02:07:33.043Z,8.40
2018-11-25T02:08:33.001Z,8.30
2018-11-25T02:09:32.953Z,7.30
2018-11-25T02:10:32.922Z,7.20
2018-11-25T02:11:32.873Z,7.30
2018-11-25T02:12:32.831Z,7.30
2018-11-25T02:13:32.794Z,7.50
2018-11-25T02:14:32.744Z,7.90
2018-11-25T02:15:32.704Z,7.60
2018-11-25T02:16:32.665Z,7.50
2018-11-25T02:17:32.626Z,7.70
2018-11-25T02:18:32.579Z,7.90
2018-11-25T02:19:32.537Z,7.80
2018-11-25T02:20:32.496Z,7.30
2018-11-25T02:21:32.453Z,7.50
2018-11-25T02:22:32.418Z,8.20
2018-11-25T02:23:32.372Z,8.10
2018-11-25T02:24:32.329Z,7.60
2018-11-25T02:25:32.289Z,7.60
2018-11-25T02:26:32.253Z,7.40
2018-11-25T02:27:32.206Z,7.40
2018-11-25T02:28:32.165Z,7.50
2018-11-25T02:29:32.125Z,7.30
2018-11-25T02:30:32.082Z,7.60
2018-11-25T02:31:32.037Z,9.00
2018-11-25T02:32:31.996Z,7.90
2018-11-25T02:33:31.952Z,7.60
2018-11-25T02:34:31.919Z,8.10
2018-11-25T02:35:31.875Z,7.40
2018-11-25T02:36:31.833Z,7.70
2018-11-25T02:37:31.797Z,7.70
2018-11-25T02:38:31.745Z,7.80
2018-11-25T02:39:31.704Z,7.80
2018-11-25T02:40:31.664Z,6.90
2018-11-25T02:41:31.625Z,7.80
2018-11-25T02:42:31.578Z,7.00
2018-11-25T02:43:31.538Z,8.00
2018-11-25T02:44:31.500Z,7.70
2018-11-25T02:45:31.456Z,6.90
2018-11-25T02:46:31.417Z,7.30
2018-11-25T02:47:31.372Z,7.10
2018-11-25T02:48:31.333Z,7.40
2018-11-25T02:49:31.292Z,6.90
2018-11-25T02:50:31.247Z,7.20
2018-11-25T02:51:31.205Z,7.50
2018-11-25T02:52:31.163Z,6.90
2018-11-25T02:53:31.121Z,8.00
2018-11-25T02:54:31.084Z,7.30
2018-11-25T02:55:31.040Z,7.00
2018-11-25T02:56:30.998Z,7.30
2018-11-25T02:57:30.953Z,7.60
2018-11-25T02:58:30.918Z,8.00
2018-11-25T02:59:30.875Z,7.10
2018-11-25T03:00:30.834Z,7.20
2018-11-25T03:01:30.793Z,7.30
2018-11-25T03:02:30.745Z,7.50
2018-11-25T03:03:30.706Z,7.80
2018-11-25T03:04:30.667Z,7.40
2018-11-25T03:05:30.621Z,7.80
2018-11-25T03:06:30.598Z,7.80
2018-11-25T03:07:30.544Z,7.90
2018-11-25T03:08:30.510Z,7.20
2018-11-25T03:09:30.462Z,7.80
2018-11-25T03:10:30.461Z,7.70
2018-11-25T03:11:30.375Z,7.40
2018-11-25T03:12:30.335Z,7.90
2018-11-25T03:13:30.301Z,7.40
2018-11-25T03:14:30.250Z,8.00
2018-11-25T03:15:30.210Z,7.40
2018-11-25T03:16:30.168Z,8.40
2018-11-25T03:17:30.126Z,9.30
2018-11-25T03:18:30.091Z,9.50
2018-11-25T03:19:30.046Z,10.20
2018-11-25T03:20:30.006Z,8.90
2018-11-25T03:21:29.964Z,9.10
2018-11-25T03:22:29.930Z,9.10
2018-11-25T03:23:29.880Z,9.00
2018-11-25T03:24:29.838Z,8.90
2018-11-25T03:25:29.793Z,8.50
2018-11-25T03:26:29.758Z,8.60
2018-11-25T03:27:29.717Z,7.60
2018-11-25T03:28:29.668Z,7.40
2018-11-25T03:29:29.627Z,8.20
2018-11-25T03:30:29.590Z,8.10
2018-11-25T03:31:29.547Z,8.70
2018-11-25T03:32:29.505Z,8.70
2018-11-25T03:33:29.468Z,9.60
2018-11-25T03:34:29.420Z,8.50
2018-11-25T03:35:29.378Z,7.90
2018-11-25T03:36:29.338Z,8.70
2018-11-25T03:37:29.295Z,8.70
2018-11-25T03:38:29.260Z,8.50
2018-11-25T03:39:29.215Z,8.50
2018-11-25T03:40:29.174Z,8.20
2018-11-25T03:41:29.138Z,8.50
2018-11-25T03:42:29.091Z,8.50
2018-11-25T03:43:29.046Z,8.50
2018-11-25T03:44:29.008Z,8.50
2018-11-25T03:45:28.967Z,8.80
2018-11-25T03:46:28.921Z,8.90
2018-11-25T03:47:28.881Z,8.20
2018-11-25T03:48:28.840Z,8.70
2018-11-25T03:49:28.798Z,8.00
2018-11-25T03:50:28.763Z,8.20
2018-11-25T03:51:28.717Z,8.00
2018-11-25T03:52:28.680Z,8.80
2018-11-25T04:06:37.999Z,7.90
2018-11-25T04:07:37.921Z,11.40
2018-11-25T04:08:37.875Z,10.10
2018-11-25T04:09:37.828Z,9.80
2018-11-25T04:10:37.782Z,9.10
2018-11-25T04:11:37.743Z,9.10
2018-11-25T04:12:37.699Z,9.50
2018-11-25T04:13:37.657Z,8.90
2018-11-25T04:14:46.259Z,9.10
2018-11-25T04:16:42.004Z,9.80
2018-11-25T04:17:41.934Z,9.20
2018-11-25T04:18:41.889Z,9.40
2018-11-25T04:19:41.849Z,9.70
2018-11-25T04:20:41.810Z,9.00
2018-11-25T04:21:41.770Z,9.30
2018-11-25T04:22:41.724Z,8.70
2018-11-25T04:23:41.679Z,8.50
2018-11-25T04:24:41.640Z,8.70
2018-11-25T04:25:41.600Z,9.20
2018-11-25T04:26:41.556Z,9.80
2018-11-25T04:27:41.516Z,9.60
2018-11-25T04:28:41.481Z,10.40
2018-11-25T04:29:41.425Z,10.00
2018-11-25T04:30:41.382Z,10.50
2018-11-25T04:31:41.346Z,10.60
2018-11-25T04:32:41.308Z,11.10
2018-11-25T04:33:41.264Z,10.70
2018-11-25T04:34:41.220Z,10.80
2018-11-25T04:35:41.176Z,11.30
2018-11-25T04:36:41.132Z,10.50
2018-11-25T04:37:41.093Z,11.30
2018-11-25T04:38:41.052Z,11.30
2018-11-25T04:39:41.016Z,9.90
2018-11-25T04:40:40.966Z,10.60
2018-11-25T04:41:40.921Z,10.60
2018-11-25T04:42:40.878Z,10.30
2018-11-25T04:43:40.839Z,10.00
2018-11-25T04:44:40.803Z,10.10
2018-11-25T04:45:40.760Z,10.10
2018-11-25T04:46:40.717Z,9.50
2018-11-25T04:47:40.675Z,9.70
2018-11-25T04:48:40.630Z,9.70
2018-11-25T04:49:40.593Z,10.40
2018-11-25T04:50:40.544Z,10.30
2018-11-25T04:51:40.507Z,12.00
2018-11-25T04:52:41.124Z,10.00
2018-11-25T04:53:40.425Z,10.40
2018-11-25T04:54:40.378Z,9.60
2018-11-25T04:55:40.339Z,8.70
2018-11-25T04:56:40.301Z,9.00
2018-11-25T04:57:40.259Z,7.80
2018-11-25T04:58:40.217Z,9.70
2018-11-25T04:59:40.176Z,9.20
2018-11-25T05:00:40.129Z,8.60
2018-11-25T05:01:40.085Z,8.70
2018-11-25T05:02:40.044Z,8.30
2018-11-25T05:03:40.006Z,8.30
2018-11-25T05:04:39.964Z,8.20
2018-11-25T05:05:39.924Z,8.20
2018-11-25T05:06:39.882Z,8.60
2018-11-25T05:07:39.839Z,8.20
2018-11-25T05:08:39.802Z,7.90
2018-11-25T05:09:39.752Z,7.80
2018-11-25T05:10:39.715Z,8.10
2018-11-25T05:11:39.672Z,7.50
2018-11-25T05:12:39.628Z,8.10
2018-11-25T05:13:39.585Z,8.20
2018-11-25T05:14:39.545Z,7.90
2018-11-25T05:15:39.503Z,8.20
2018-11-25T05:16:39.464Z,8.20
2018-11-25T05:17:39.425Z,7.90
2018-11-25T05:18:39.383Z,7.90
2018-11-25T05:19:39.338Z,8.70
2018-11-25T05:20:39.295Z,8.00
2018-11-25T05:21:39.252Z,8.40
2018-11-25T05:22:39.209Z,8.00
2018-11-25T05:23:39.170Z,8.10
2018-11-25T05:24:39.131Z,7.10
2018-11-25T05:25:39.091Z,7.30
2018-11-25T05:26:39.043Z,7.50
2018-11-25T05:27:39.006Z,7.20
2018-11-25T05:28:38.965Z,7.90
2018-11-25T05:29:38.925Z,7.50
2018-11-25T05:30:38.883Z,7.30
2018-11-25T05:31:38.843Z,7.00
2018-11-25T05:32:38.801Z,6.70
2018-11-25T05:33:38.753Z,7.40
2018-11-25T05:34:38.710Z,7.60
2018-11-25T05:35:38.672Z,7.30
2018-11-25T05:36:38.631Z,7.80
2018-11-25T05:37:38.596Z,7.40
2018-11-25T05:38:38.550Z,7.50
2018-11-25T05:39:38.509Z,7.30
2018-11-25T05:40:38.466Z,8.60
2018-11-25T05:41:38.421Z,7.50
2018-11-25T05:42:38.385Z,7.70
2018-11-25T05:43:38.340Z,7.60
2018-11-25T05:44:38.298Z,8.20
2018-11-25T05:45:38.254Z,8.70
2018-11-25T05:46:38.211Z,8.80
2018-11-25T05:47:38.171Z,10.30
2018-11-25T05:48:38.137Z,8.80
2018-11-25T05:49:38.094Z,12.30
2018-11-25T05:50:38.051Z,13.20
2018-11-25T05:51:38.008Z,13.70
2018-11-25T05:52:37.967Z,16.20
2018-11-25T05:53:37.922Z,23.40
2018-11-25T05:54:37.880Z,35.50
2018-11-25T05:55:37.853Z,49.20
2018-11-25T05:56:37.806Z,38.90
2018-11-25T05:57:37.761Z,34.80
2018-11-25T05:58:37.710Z,31.60
2018-11-25T05:59:37.673Z,28.90
2018-11-25T06:00:37.634Z,35.60
2018-11-25T06:01:37.593Z,45.50
2018-11-25T06:02:37.551Z,31.60
2018-11-25T06:03:37.507Z,42.30
2018-11-25T06:04:37.465Z,75.90
2018-11-25T06:05:37.421Z,43.60
2018-11-25T06:06:37.376Z,42.60
2018-11-25T06:07:37.339Z,84.40
2018-11-25T06:08:37.298Z,98.10
2018-11-25T06:09:37.259Z,162.50
2018-11-25T06:10:37.219Z,140.90
2018-11-25T06:11:37.171Z,157.00
2018-11-25T06:12:37.130Z,100.00
2018-11-25T06:13:37.083Z,126.90
2018-11-25T06:14:37.052Z,146.40
2018-11-25T06:15:37.004Z,142.70
2018-11-25T06:16:36.960Z,132.30
2018-11-25T06:17:36.917Z,125.40
2018-11-25T06:18:36.879Z,128.60
2018-11-25T06:19:36.834Z,151.70
2018-11-25T06:20:36.793Z,132.20
2018-11-25T06:21:36.760Z,124.10
2018-11-25T06:22:36.707Z,95.30
2018-11-25T06:23:36.669Z,98.00
2018-11-25T06:24:36.621Z,89.70
2018-11-25T06:25:36.581Z,66.40
2018-11-25T06:26:36.538Z,63.40
2018-11-25T06:27:38.208Z,60.20
2018-11-25T06:28:36.458Z,53.60
2018-11-25T06:29:36.415Z,38.10
2018-11-25T06:30:36.369Z,35.20
2018-11-25T06:31:36.329Z,25.10
2018-11-25T06:32:36.291Z,23.30
2018-11-25T06:33:36.247Z,21.00
2018-11-25T06:34:36.204Z,22.80
2018-11-25T06:35:36.164Z,21.40
2018-11-25T06:36:36.117Z,22.40
2018-11-25T06:37:36.078Z,20.50
2018-11-25T06:38:36.037Z,19.90
2018-11-25T06:39:35.990Z,18.90
2018-11-25T06:40:35.958Z,21.40
2018-11-25T06:41:35.911Z,34.00
2018-11-25T06:42:35.870Z,56.40
2018-11-25T06:43:35.829Z,41.00
2018-11-25T06:44:35.780Z,35.90
2018-11-25T06:45:35.748Z,59.50
2018-11-25T06:46:35.701Z,43.70
2018-11-25T06:47:35.660Z,27.00
2018-11-25T06:48:35.615Z,28.20
2018-11-25T06:49:35.580Z,31.30
2018-11-25T06:50:35.535Z,38.70
2018-11-25T06:51:35.495Z,33.50
2018-11-25T06:52:35.452Z,30.70
2018-11-25T06:53:35.408Z,26.30
2018-11-25T06:54:35.366Z,26.00
2018-11-25T06:55:35.326Z,24.20
2018-11-25T06:56:35.277Z,25.00
2018-11-25T06:57:35.239Z,24.70
2018-11-25T06:58:35.196Z,24.30
2018-11-25T06:59:35.161Z,23.40
2018-11-25T07:00:35.116Z,24.80
2018-11-25T07:01:35.074Z,24.80
2018-11-25T07:02:35.028Z,22.10
2018-11-25T07:03:34.986Z,23.70
2018-11-25T07:04:34.953Z,22.20
2018-11-25T07:05:34.905Z,21.80
2018-11-25T07:06:34.862Z,22.00
2018-11-25T07:07:34.834Z,20.60
2018-11-25T07:08:34.777Z,22.90
2018-11-25T07:09:34.740Z,19.90
2018-11-25T07:10:34.725Z,23.70
2018-11-25T07:11:34.648Z,22.40
2018-11-25T07:12:34.613Z,22.40
2018-11-25T07:13:34.570Z,22.90
2018-11-25T07:14:34.529Z,21.90
2018-11-25T07:15:34.488Z,19.80
2018-11-25T07:16:34.440Z,22.30
2018-11-25T07:17:34.402Z,21.90
2018-11-25T07:18:34.360Z,20.60
2018-11-25T07:19:34.326Z,20.20
2018-11-25T07:20:34.273Z,19.20
2018-11-25T07:21:34.238Z,18.70
2018-11-25T07:22:34.196Z,19.30
2018-11-25T07:23:34.149Z,19.20
2018-11-25T07:24:34.113Z,17.30
2018-11-25T07:25:34.070Z,18.00
2018-11-25T07:26:34.029Z,16.70
2018-11-25T07:27:33.987Z,17.60
2018-11-25T07:28:33.939Z,18.30
2018-11-25T07:29:33.901Z,16.20
2018-11-25T07:30:33.857Z,16.90
2018-11-25T07:31:33.815Z,18.70
2018-11-25T07:32:33.779Z,18.00
2018-11-25T07:33:33.735Z,18.50
2018-11-25T07:34:33.693Z,19.40
2018-11-25T07:35:33.647Z,19.10
2018-11-25T07:36:33.617Z,19.90
2018-11-25T07:37:33.570Z,23.50
2018-11-25T07:38:33.527Z,21.90
2018-11-25T07:39:33.486Z,20.70
2018-11-25T07:40:33.441Z,20.70
2018-11-25T07:41:33.400Z,19.30
2018-11-25T07:42:33.358Z,18.00
2018-11-25T07:43:33.314Z,18.50
2018-11-25T07:44:33.286Z,18.10
2018-11-25T07:45:33.236Z,18.60
2018-11-25T07:46:33.194Z,18.90
2018-11-25T07:47:33.154Z,18.40
2018-11-25T07:48:33.108Z,17.80
2018-11-25T07:49:33.068Z,17.90
2018-11-25T07:50:33.029Z,18.30
2018-11-25T07:51:32.988Z,16.80
2018-11-25T07:52:32.942Z,17.10
2018-11-25T07:53:32.923Z,15.60
2018-11-25T07:54:32.859Z,15.60
2018-11-25T07:55:32.816Z,15.80
2018-11-25T07:56:32.829Z,14.90
2018-11-25T07:57:32.739Z,14.50
2018-11-25T07:58:32.695Z,13.70
2018-11-25T07:59:32.657Z,14.30
2018-11-25T08:00:32.610Z,14.70
2018-11-25T08:01:32.568Z,15.70
2018-11-25T08:02:32.528Z,14.20
2018-11-25T08:03:32.484Z,13.90
2018-11-25T08:04:32.452Z,13.90
2018-11-25T08:05:32.405Z,13.20
2018-11-25T08:06:32.361Z,14.40
2018-11-25T08:07:32.744Z,14.30
2018-11-25T08:08:32.291Z,13.70
2018-11-25T08:09:32.239Z,19.50
2018-11-25T08:10:32.200Z,21.40
2018-11-25T08:11:32.159Z,23.30
2018-11-25T08:12:32.111Z,26.20
2018-11-25T08:13:32.073Z,27.40
2018-11-25T08:14:32.029Z,25.30
2018-11-25T08:15:31.986Z,24.10
2018-11-25T08:16:31.959Z,26.20
2018-11-25T08:17:31.908Z,23.90
2018-11-25T08:18:31.870Z,22.90
2018-11-25T08:19:31.827Z,24.30
2018-11-25T08:20:31.779Z,25.40
2018-11-25T08:21:31.741Z,23.50
2018-11-25T08:22:31.699Z,23.60
2018-11-25T08:23:31.664Z,26.00
2018-11-25T08:24:31.618Z,26.70
2018-11-25T08:25:31.574Z,25.10
2018-11-25T08:26:31.533Z,22.60
2018-11-25T08:27:31.491Z,21.50
2018-11-25T08:28:31.459Z,19.40
2018-11-25T08:29:31.416Z,19.00
2018-11-25T08:30:31.370Z,18.80
2018-11-25T08:31:31.331Z,18.10
2018-11-25T08:32:31.287Z,45.20
2018-11-25T08:33:31.248Z,61.20
2018-11-25T08:34:31.201Z,70.20
2018-11-25T08:35:31.158Z,75.90
2018-11-25T08:36:31.122Z,67.10
2018-11-25T08:37:31.083Z,93.40
2018-11-25T08:38:31.035Z,161.30
2018-11-25T08:39:30.992Z,124.00
2018-11-25T08:40:30.956Z,103.00
2018-11-25T08:41:30.917Z,102.70
2018-11-25T08:42:30.883Z,62.10
2018-11-25T08:43:30.833Z,58.60
2018-11-25T08:44:30.794Z,99.00
2018-11-25T08:45:30.747Z,144.20
2018-11-25T08:46:30.704Z,128.50
2018-11-25T08:47:30.660Z,207.10
2018-11-25T08:48:30.625Z,120.20
2018-11-25T08:49:30.588Z,69.90
2018-11-25T08:50:30.542Z,84.50
2018-11-25T08:51:30.501Z,79.60
2018-11-25T08:52:30.453Z,77.20
2018-11-25T08:53:30.413Z,73.60
2018-11-25T08:54:30.374Z,92.60
2018-11-25T08:55:30.333Z,131.10
2018-11-25T08:56:30.289Z,114.40
2018-11-25T08:57:30.248Z,128.20
2018-11-25T08:58:30.205Z,88.50
2018-11-25T08:59:30.161Z,101.70
2018-11-25T09:00:30.129Z,96.50
2018-11-25T09:01:30.083Z,91.40
2018-11-25T09:02:30.041Z,80.00
2018-11-25T09:03:30.003Z,98.20
2018-11-25T09:04:29.962Z,83.80
2018-11-25T09:05:29.913Z,96.10
2018-11-25T09:06:29.872Z,98.50
2018-11-25T09:07:29.828Z,113.40
2018-11-25T09:08:29.794Z,126.40
2018-11-25T09:09:30.407Z,70.70
2018-11-25T09:10:29.717Z,118.40
2018-11-25T09:11:29.664Z,113.30
2018-11-25T09:12:29.626Z,64.00
2018-11-25T09:13:29.584Z,92.80
2018-11-25T09:14:29.541Z,101.60
2018-11-25T09:15:29.501Z,84.30
2018-11-25T09:16:29.455Z,86.10
2018-11-25T09:17:29.418Z,96.80
2018-11-25T09:18:29.372Z,60.00
2018-11-25T09:19:29.329Z,83.10
2018-11-25T09:20:29.296Z,81.10
2018-11-25T09:21:29.250Z,60.00
2018-11-25T09:22:29.209Z,65.60
2018-11-25T09:23:29.169Z,69.40
2018-11-25T09:24:29.124Z,74.50
2018-11-25T09:25:29.084Z,61.20
2018-11-25T09:26:29.042Z,76.80
2018-11-25T09:27:29.002Z,81.90
2018-11-25T09:28:28.957Z,86.50
2018-11-25T09:29:28.915Z,84.50
2018-11-25T09:30:28.878Z,85.30
2018-11-25T09:31:28.829Z,83.10
2018-11-25T09:32:28.794Z,75.40
2018-11-25T09:33:28.755Z,118.30
2018-11-25T09:34:28.708Z,123.40
2018-11-25T09:35:28.668Z,79.90
2018-11-25T09:36:28.626Z,93.80
2018-11-25T09:37:28.581Z,92.80
2018-11-25T09:38:28.539Z,86.30
2018-11-25T09:39:28.496Z,110.00
2018-11-25T09:40:28.459Z,85.70
2018-11-25T09:41:28.415Z,94.40
2018-11-25T09:42:28.372Z,82.80
2018-11-25T09:43:28.329Z,114.90
2018-11-25T09:44:28.294Z,122.20
2018-11-25T09:45:28.249Z,121.50
2018-11-25T09:46:28.207Z,141.80
2018-11-25T09:47:28.200Z,108.90
2018-11-25T09:48:28.121Z,100.00
2018-11-25T09:49:28.082Z,120.70
2018-11-25T09:50:28.042Z,91.60
2018-11-25T09:51:27.996Z,100.80
2018-11-25T09:52:27.959Z,104.30
2018-11-25T09:53:27.915Z,122.10
2018-11-25T09:54:27.876Z,85.70
2018-11-25T09:55:27.835Z,79.80
2018-11-25T09:56:27.785Z,81.60
2018-11-25T09:57:27.747Z,84.40
2018-11-25T09:58:27.710Z,57.80
2018-11-25T09:59:27.667Z,51.60
2018-11-25T10:00:27.623Z,54.10
2018-11-25T10:01:27.580Z,49.20
2018-11-25T10:02:27.542Z,44.20
2018-11-25T10:03:27.495Z,57.30
2018-11-25T10:04:27.501Z,47.80
2018-11-25T10:05:27.416Z,58.90
2018-11-25T10:20:02.946Z,58.10
2018-11-25T10:21:02.872Z,55.10
2018-11-25T10:22:02.824Z,56.70
2018-11-25T10:23:02.788Z,65.50
2018-11-25T10:24:02.740Z,56.40
2018-11-25T10:25:02.702Z,43.00
2018-11-25T10:26:02.652Z,48.20
2018-11-25T10:27:02.604Z,48.80
2018-11-25T10:28:02.562Z,38.30
2018-11-25T10:29:02.521Z,53.20
2018-11-25T10:30:02.480Z,51.60
2018-11-25T10:31:02.431Z,49.20
2018-11-25T10:32:02.394Z,51.50
2018-11-25T10:33:02.382Z,55.90
2018-11-25T10:34:02.304Z,59.00
2018-11-25T10:35:02.272Z,51.90
2018-11-25T10:36:04.663Z,53.00
2018-11-25T10:37:02.184Z,57.00
2018-11-25T10:38:02.146Z,43.30
2018-11-25T10:39:02.092Z,55.20
2018-11-25T10:40:02.060Z,50.60
2018-11-25T10:41:02.013Z,43.60
2018-11-25T10:42:01.965Z,46.70
2018-11-25T10:43:01.934Z,51.10
2018-11-25T10:44:01.886Z,48.70
2018-11-25T10:45:01.846Z,54.40
2018-11-25T10:46:01.797Z,47.60
2018-11-25T10:47:01.765Z,42.60
2018-11-25T10:48:01.730Z,50.40
2018-11-25T10:49:01.678Z,40.20
2018-11-25T10:50:01.639Z,50.00
2018-11-25T10:51:01.589Z,65.20
2018-11-25T10:52:01.551Z,66.60
2018-11-25T10:53:01.509Z,70.70
2018-11-25T10:54:01.464Z,62.90
2018-11-25T10:55:01.429Z,49.60
2018-11-25T10:56:01.385Z,51.00
2018-11-25T10:57:01.343Z,69.00
2018-11-25T10:58:01.305Z,55.50
2018-11-25T10:59:01.255Z,70.70
2018-11-25T11:00:01.248Z,64.40
2018-11-25T11:01:01.179Z,118.30
2018-11-25T11:02:01.138Z,83.70
2018-11-25T11:03:01.090Z,55.90
2018-11-25T11:04:01.051Z,64.30
2018-11-25T11:05:01.009Z,66.50
2018-11-25T11:06:00.964Z,65.10
2018-11-25T11:07:00.931Z,42.40
2018-11-25T11:08:00.885Z,41.60
2018-11-25T11:09:00.844Z,37.30
2018-11-25T11:10:00.805Z,35.10
2018-11-25T11:11:00.757Z,31.00
2018-11-25T11:12:00.718Z,38.40
2018-11-25T11:13:00.680Z,41.30
2018-11-25T11:14:00.636Z,41.90
2018-11-25T11:15:00.598Z,43.30
2018-11-25T11:16:00.553Z,45.90
2018-11-25T11:17:00.522Z,51.30
2018-11-25T11:18:00.466Z,41.90
2018-11-25T11:19:00.431Z,54.00
2018-11-25T11:20:00.387Z,63.80
2018-11-25T11:21:00.348Z,69.40
2018-11-25T11:22:00.306Z,99.40
2018-11-25T11:23:00.263Z,68.70
2018-11-25T11:24:00.219Z,59.80
2018-11-25T11:25:00.177Z,168.30
2018-11-25T11:26:06.693Z,93.60
2018-11-25T11:27:00.100Z,70.40
2018-11-25T11:28:00.063Z,69.40
2018-11-25T11:29:00.015Z,60.70
2018-11-25T11:29:59.974Z,49.00
2018-11-25T11:30:59.926Z,104.40
2018-11-25T11:31:59.886Z,53.90
2018-11-25T11:32:59.889Z,76.40
2018-11-25T11:33:59.808Z,63.70
2018-11-25T11:34:59.760Z,47.70
2018-11-25T11:35:59.721Z,48.60
2018-11-25T11:36:59.680Z,64.70
2018-11-25T11:37:59.635Z,49.10
2018-11-25T11:38:59.604Z,47.10
2018-11-25T11:39:59.557Z,43.90
2018-11-25T11:40:59.518Z,135.50
2018-11-25T11:41:59.476Z,208.30
2018-11-25T11:42:59.429Z,225.10
2018-11-25T11:43:59.388Z,289.40
2018-11-25T11:44:59.348Z,198.80
2018-11-25T11:45:59.304Z,203.10
2018-11-25T11:46:59.268Z,161.90
2018-11-25T11:47:59.226Z,101.50
2018-11-25T11:48:59.178Z,114.50
2018-11-25T11:49:59.139Z,181.20
2018-11-25T11:50:59.103Z,113.10
2018-11-25T11:51:59.060Z,176.90
2018-11-25T11:52:59.018Z,135.90
2018-11-25T11:53:58.977Z,116.20
2018-11-25T11:54:58.929Z,192.90
2018-11-25T11:55:58.890Z,156.60
2018-11-25T11:56:58.850Z,160.00
2018-11-25T11:57:58.806Z,112.50
2018-11-25T11:58:58.769Z,273.30
2018-11-25T11:59:58.726Z,206.70
2018-11-25T12:00:58.688Z,96.80
2018-11-25T12:01:58.645Z,107.60
2018-11-25T12:02:58.597Z,104.60
2018-11-25T12:03:58.562Z,147.70
2018-11-25T12:04:58.518Z,108.40
2018-11-25T12:05:58.478Z,123.80
2018-11-25T12:06:58.431Z,149.20
2018-11-25T12:07:58.395Z,218.60
2018-11-25T12:08:58.349Z,145.20
2018-11-25T12:09:58.308Z,143.70
2018-11-25T12:10:58.272Z,137.60
2018-11-25T12:11:58.227Z,223.30
2018-11-25T12:12:58.188Z,200.30
2018-11-25T12:13:58.146Z,147.80
2018-11-25T12:14:58.097Z,277.40
2018-11-25T12:15:58.059Z,201.70
2018-11-25T12:16:58.018Z,194.60
2018-11-25T12:17:57.973Z,195.00
2018-11-25T12:18:57.937Z,223.30
2018-11-25T12:19:57.894Z,239.40
2018-11-25T12:20:57.853Z,212.70
2018-11-25T12:21:58.260Z,217.00
2018-11-25T12:22:57.773Z,255.50
2018-11-25T12:23:57.728Z,216.70
2018-11-25T12:24:57.687Z,222.40
2018-11-25T12:25:57.645Z,193.10
2018-11-25T12:26:57.600Z,164.00
2018-11-25T12:27:57.560Z,233.50
2018-11-25T12:28:57.519Z,216.00
2018-11-25T12:29:57.474Z,212.10
2018-11-25T12:30:57.447Z,188.70
2018-11-25T12:31:57.397Z,197.40
2018-11-25T12:32:57.353Z,225.10
2018-11-25T12:33:57.313Z,223.80
2018-11-25T12:34:57.266Z,267.90
2018-11-25T12:35:57.226Z,309.90
2018-11-25T12:36:57.188Z,275.20
2018-11-25T12:37:57.147Z,286.80
2018-11-25T12:38:57.098Z,268.50
2018-11-25T12:39:57.060Z,313.90
2018-11-25T12:40:57.023Z,234.90
2018-11-25T12:41:56.973Z,281.10
2018-11-25T12:42:56.938Z,227.40
2018-11-25T12:43:56.896Z,209.60
2018-11-25T12:44:56.853Z,173.60
2018-11-25T12:45:56.812Z,145.40
2018-11-25T12:46:56.767Z,169.50
2018-11-25T12:47:56.726Z,170.90
2018-11-25T12:48:56.685Z,115.90
2018-11-25T12:49:56.642Z,201.80
2018-11-25T12:50:56.605Z,179.60
2018-11-25T12:51:56.562Z,194.00
2018-11-25T12:52:56.518Z,228.80
2018-11-25T12:53:56.473Z,160.40
2018-11-25T12:54:56.438Z,255.40
2018-11-25T12:55:56.395Z,339.80
2018-11-25T12:56:56.353Z,353.30
2018-11-25T12:57:56.313Z,374.50
2018-11-25T12:58:56.266Z,344.60
2018-11-25T12:59:56.229Z,391.10
2018-11-25T13:00:56.184Z,373.10
2018-11-25T13:01:56.141Z,422.50
2018-11-25T13:02:56.104Z,294.90
2018-11-25T13:03:56.062Z,349.40
2018-11-25T13:04:56.019Z,382.70
2018-11-25T13:05:55.979Z,436.90
2018-11-25T13:06:55.932Z,402.20
2018-11-25T13:07:55.892Z,377.90
2018-11-25T13:08:55.853Z,280.30
2018-11-25T13:09:55.811Z,315.20
2018-11-25T13:10:55.766Z,190.50
2018-11-25T13:11:55.725Z,268.00
2018-11-25T13:12:55.682Z,316.10
2018-11-25T13:13:55.638Z,391.80
2018-11-25T13:14:55.609Z,399.60
2018-11-25T13:15:55.559Z,332.30
2018-11-25T13:16:55.516Z,368.70
2018-11-25T13:17:55.471Z,362.80
2018-11-25T13:18:55.436Z,466.50
2018-11-25T13:19:55.393Z,507.50
2018-11-25T13:20:55.350Z,349.70
2018-11-25T13:21:55.311Z,373.70
2018-11-25T13:22:55.261Z,342.80
2018-11-25T13:23:55.223Z,385.20